Time;durP1;ratioP1;P1;durP2;ratioP2;P2;SDS_P1;SDS_P2;PMS_P1;PMS_P2;Temp;Humidity;BMP_temperature;BMP_pressure;BME280_temperature;BME280_humidity;BME280_pressure;Samples;Min_cycle;Max_cycle;Signal;HPM_P1;HPM_P2
2023/06/16 00:00:59;;;;;;;15.40;11.60;;;;;;;22.90;56.92;100254.07;102614;1288;604179;-61
2023/06/16 00:03:27;;;;;;;16.50;10.10;;;;;;;23.19;55.59;100244.67;104078;1272;119552;-59
2023/06/16 00:05:55;;;;;;;16.50;11.00;;;;;;;23.10;55.64;100243.16;104131;1271;59365;-56
2023/06/16 00:08:23;;;;;;;15.60;11.00;;;;;;;23.05;55.90;100248.92;104485;1264;63842;-57
2023/06/16 00:10:52;;;;;;;16.20;11.20;;;;;;;23.00;55.98;100247.77;104496;1263;61507;-57
2023/06/16 00:13:19;;;;;;;14.30;10.80;;;;;;;22.94;56.06;100242.48;104624;1266;65590;-58
2023/06/16 00:15:47;;;;;;;15.10;11.20;;;;;;;22.89;56.39;100240.35;104244;1264;59256;-58
2023/06/16 00:18:14;;;;;;;13.30;10.70;;;;;;;22.83;56.56;100238.78;104503;1265;59421;-57
2023/06/16 00:20:42;;;;;;;15.80;11.70;;;;;;;22.78;56.56;100239.36;104415;1268;63325;-57
2023/06/16 00:23:15;;;;;;;18.70;11.00;;;;;;;22.73;56.71;100240.61;104582;1265;61562;-58
2023/06/16 00:25:42;;;;;;;17.80;10.50;;;;;;;22.67;56.55;100240.89;104309;1265;62464;-58
2023/06/16 00:28:09;;;;;;;12.70;10.20;;;;;;;22.61;56.81;100238.29;104464;1263;60899;-59
2023/06/16 00:30:37;;;;;;;16.60;10.00;;;;;;;22.58;56.98;100232.85;104188;1268;61291;-58
2023/06/16 00:33:06;;;;;;;15.60;11.50;;;;;;;22.55;57.05;100232.38;104556;1263;64179;-58
2023/06/16 00:35:34;;;;;;;16.30;10.30;;;;;;;22.50;57.03;100231.77;105324;1264;61338;-58
2023/06/16 00:38:02;;;;;;;14.10;10.10;;;;;;;22.44;56.88;100231.59;104416;1266;63682;-58
2023/06/16 00:40:30;;;;;;;15.40;10.60;;;;;;;22.39;57.21;100226.09;104539;1265;60450;-59
2023/06/16 00:43:01;;;;;;;17.40;10.60;;;;;;;22.33;57.46;100223.48;104403;1263;59991;-58
2023/06/16 00:45:29;;;;;;;15.00;10.50;;;;;;;22.26;57.49;100221.81;104426;1268;62831;-59
2023/06/16 00:47:58;;;;;;;13.60;10.00;;;;;;;22.21;57.67;100221.67;104878;1266;60191;-59
2023/06/16 00:50:26;;;;;;;14.30;9.90;;;;;;;22.14;57.87;100221.85;104295;1265;63673;-59
2023/06/16 00:52:54;;;;;;;15.20;9.60;;;;;;;22.11;58.06;100220.86;104746;1265;59862;-59
2023/06/16 00:55:22;;;;;;;14.70;10.00;;;;;;;22.09;58.18;100220.36;104166;1270;59704;-60
2023/06/16 00:57:53;;;;;;;15.80;10.70;;;;;;;22.06;58.49;100220.20;104321;1271;64107;-58
2023/06/16 01:00:21;;;;;;;18.30;10.90;;;;;;;22.03;58.71;100218.58;104518;1268;61373;-58
2023/06/16 01:02:50;;;;;;;13.50;10.30;;;;;;;22.00;58.77;100220.84;104620;1266;63755;-59
2023/06/16 01:05:19;;;;;;;15.70;11.60;;;;;;;21.95;58.75;100219.14;104214;1270;60549;-58
2023/06/16 01:08:03;;;;;;;19.60;11.90;;;;;;;21.91;58.83;100218.05;104515;1266;59731;-58
2023/06/16 01:10:59;;;;;;;15.70;10.90;;;;;;;21.87;59.16;100218.33;104442;1268;64072;-58
2023/06/16 01:13:33;;;;;;;15.10;10.10;;;;;;;21.87;59.38;100217.02;104407;1267;61384;-55
2023/06/16 01:16:02;;;;;;;11.70;9.40;;;;;;;21.87;59.37;100219.77;104213;1266;63685;-57
2023/06/16 01:18:29;;;;;;;17.70;11.30;;;;;;;21.85;59.55;100222.15;104868;1268;59655;-59
2023/06/16 01:21:17;;;;;;;13.60;10.10;;;;;;;21.84;59.86;100224.99;104452;1263;62051;-59
2023/06/16 01:24:23;;;;;;;15.90;11.40;;;;;;;21.81;60.13;100226.09;104206;1263;62935;-58
2023/06/16 01:26:53;;;;;;;15.40;11.30;;;;;;;21.78;60.33;100229.95;105255;1265;61883;-58
2023/06/16 01:29:22;;;;;;;13.70;10.80;;;;;;;21.75;60.59;100234.48;104581;1268;62708;-58
2023/06/16 01:31:55;;;;;;;18.10;10.80;;;;;;;21.76;60.75;100234.40;104589;1267;60023;-59
2023/06/16 01:34:22;;;;;;;16.30;11.10;;;;;;;21.76;60.80;100232.49;104724;1266;59524;-59
2023/06/16 01:36:51;;;;;;;13.90;10.90;;;;;;;21.78;60.79;100224.20;104325;1264;64141;-58
2023/06/16 01:39:18;;;;;;;16.70;11.30;;;;;;;21.78;60.91;100230.25;104224;1269;60162;-59
2023/06/16 01:41:47;;;;;;;16.50;11.60;;;;;;;21.75;60.87;100230.36;104166;1273;62523;-59
2023/06/16 01:44:14;;;;;;;15.60;11.40;;;;;;;21.70;61.14;100226.95;104293;1267;59756;-59
2023/06/16 01:46:42;;;;;;;18.70;11.50;;;;;;;21.68;61.08;100229.49;104689;1269;59669;-58
2023/06/16 01:49:11;;;;;;;15.00;11.40;;;;;;;21.65;61.14;100232.61;104364;1269;65013;-58
2023/06/16 01:51:38;;;;;;;14.30;10.20;;;;;;;21.62;61.30;100231.08;104330;1270;60170;-59
2023/06/16 01:54:06;;;;;;;14.40;10.70;;;;;;;21.61;61.25;100229.52;104628;1268;63825;-59
2023/06/16 01:56:34;;;;;;;15.10;10.70;;;;;;;21.61;61.52;100231.13;104399;1263;59941;-58
2023/06/16 01:59:01;;;;;;;14.10;11.30;;;;;;;21.61;61.63;100229.42;104115;1271;59586;-58
2023/06/16 02:01:30;;;;;;;13.90;10.70;;;;;;;21.59;61.73;100229.84;104594;1264;64136;-59
2023/06/16 02:04:13;;;;;;;13.50;10.10;;;;;;;21.56;61.88;100228.45;104404;1268;61408;-58
2023/06/16 02:06:59;;;;;;;17.00;11.90;;;;;;;21.53;61.91;100228.20;104508;1268;62455;-58
2023/06/16 02:09:27;;;;;;;18.90;10.40;;;;;;;21.49;62.08;100227.64;104117;1265;59757;-59
2023/06/16 02:11:55;;;;;;;15.60;10.60;;;;;;;21.48;62.16;100224.88;104162;1269;59711;-59
2023/06/16 02:14:22;;;;;;;13.70;10.30;;;;;;;21.47;62.40;100221.38;104281;1271;64167;-60
2023/06/16 02:16:50;;;;;;;14.20;10.80;;;;;;;21.49;62.46;100225.83;104552;1263;60710;-68
2023/06/16 02:19:18;;;;;;;17.60;11.90;;;;;;;21.48;62.61;100224.74;104408;1266;63838;-63
2023/06/16 02:21:45;;;;;;;14.30;11.10;;;;;;;21.45;62.60;100223.52;104652;1269;59775;-61
2023/06/16 02:24:13;;;;;;;13.50;11.30;;;;;;;21.42;62.84;100222.80;104415;1264;59664;-58
2023/06/16 02:26:42;;;;;;;16.00;10.80;;;;;;;21.40;63.02;100224.23;104438;1268;64206;-59
2023/06/16 02:29:10;;;;;;;16.20;10.90;;;;;;;21.41;63.21;100221.10;104319;1268;61379;-58
2023/06/16 02:31:37;;;;;;;15.60;11.40;;;;;;;21.43;63.53;100222.40;104250;1267;62430;-58
2023/06/16 02:34:05;;;;;;;14.10;10.50;;;;;;;21.47;63.97;100225.93;104317;1268;59765;-59
2023/06/16 02:36:33;;;;;;;13.00;10.50;;;;;;;21.50;64.17;100225.50;104543;1267;59648;-60
2023/06/16 02:39:00;;;;;;;21.30;11.80;;;;;;;21.53;64.11;100229.73;104399;1271;64175;-59
2023/06/16 02:41:28;;;;;;;15.00;11.00;;;;;;;21.56;64.09;100232.12;104211;1267;61796;-58
2023/06/16 02:43:55;;;;;;;12.10;10.10;;;;;;;21.58;63.47;100234.19;104245;1268;63556;-58
2023/06/16 02:46:23;;;;;;;15.90;9.80;;;;;;;21.60;63.00;100233.46;104337;1268;59763;-58
2023/06/16 02:48:51;;;;;;;14.40;9.90;;;;;;;21.64;62.68;100230.77;104413;1268;59682;-59
2023/06/16 02:51:19;;;;;;;14.60;10.50;;;;;;;21.66;62.47;100232.21;104446;1265;64124;-58
2023/06/16 02:53:46;;;;;;;12.60;10.10;;;;;;;21.67;62.37;100236.13;104202;1266;61351;-59
2023/06/16 02:56:15;;;;;;;14.70;11.30;;;;;;;21.68;62.41;100234.02;104369;1268;63733;-59
2023/06/16 02:58:43;;;;;;;15.10;9.90;;;;;;;21.68;62.13;100233.78;104475;1268;59816;-58
2023/06/16 03:01:11;;;;;;;13.60;10.60;;;;;;;21.68;61.78;100229.61;104254;1273;59524;-58
2023/06/16 03:04:08;;;;;;;12.60;8.90;;;;;;;21.72;61.94;100230.42;103948;1272;64077;-59
2023/06/16 03:06:51;;;;;;;12.40;9.30;;;;;;;21.76;61.87;100232.59;104529;1269;60135;-58
2023/06/16 03:09:28;;;;;;;12.90;10.10;;;;;;;21.79;61.72;100231.03;104236;1269;63762;-58
2023/06/16 03:11:56;;;;;;;15.70;10.50;;;;;;;21.82;61.91;100235.52;104516;1269;59938;-58
2023/06/16 03:14:25;;;;;;;13.20;9.80;;;;;;;21.84;61.85;100236.86;104549;1269;59694;-59
2023/06/16 03:16:55;;;;;;;14.20;9.80;;;;;;;21.84;61.45;100236.82;104997;1260;64122;-59
2023/06/16 03:19:24;;;;;;;13.00;10.50;;;;;;;21.84;61.39;100230.77;104686;1267;62417;-59
2023/06/16 03:21:52;;;;;;;13.50;10.60;;;;;;;21.84;61.28;100233.44;104929;1266;63830;-59
2023/06/16 03:24:25;;;;;;;16.20;9.90;;;;;;;21.86;61.30;100237.56;104564;1265;59765;-60
2023/06/16 03:26:54;;;;;;;16.10;8.80;;;;;;;21.91;61.22;100238.81;104771;1265;59623;-59
2023/06/16 03:29:38;;;;;;;14.70;9.60;;;;;;;21.95;61.33;100238.00;104870;1261;62895;-58
2023/06/16 03:32:06;;;;;;;14.80;9.90;;;;;;;22.00;61.17;100239.87;104641;1261;61546;-59
2023/06/16 03:34:35;;;;;;;11.70;8.80;;;;;;;22.03;61.12;100239.92;104651;1260;63772;-59
2023/06/16 03:37:03;;;;;;;13.20;8.90;;;;;;;22.03;61.34;100238.04;104588;1266;59682;-59
2023/06/16 03:39:35;;;;;;;12.20;9.50;;;;;;;22.05;61.41;100241.91;104562;1259;59669;-59
2023/06/16 03:42:03;;;;;;;11.10;8.50;;;;;;;22.10;61.35;100240.43;104608;1260;64114;-60
2023/06/16 03:44:31;;;;;;;13.90;9.10;;;;;;;22.16;61.34;100240.70;104739;1265;62503;-58
2023/06/16 03:46:59;;;;;;;12.20;8.20;;;;;;;22.22;61.17;100239.56;104761;1264;62449;-59
2023/06/16 03:49:28;;;;;;;12.50;8.70;;;;;;;22.28;61.14;100243.73;104696;1260;59621;-59
2023/06/16 03:51:57;;;;;;;11.50;7.90;;;;;;;22.34;60.89;100247.02;104742;1260;60687;-59
2023/06/16 03:54:26;;;;;;;12.10;8.90;;;;;;;22.38;60.76;100244.81;104776;1263;62872;-59
2023/06/16 03:56:53;;;;;;;11.00;9.40;;;;;;;22.38;60.74;100245.81;104965;1261;60099;-58
2023/06/16 03:59:22;;;;;;;14.50;9.50;;;;;;;22.39;60.86;100244.98;104656;1264;64748;-59
2023/06/16 04:01:51;;;;;;;11.40;8.90;;;;;;;22.43;60.78;100243.96;104533;1265;59654;-59
2023/06/16 04:04:20;;;;;;;15.40;9.00;;;;;;;22.46;60.74;100246.70;104685;1260;59680;-58
2023/06/16 04:06:48;;;;;;;14.70;9.60;;;;;;;22.51;60.66;100246.63;105385;1263;64200;-58
2023/06/16 04:09:15;;;;;;;12.30;8.70;;;;;;;22.55;60.52;100244.47;104739;1264;60154;-57
2023/06/16 04:11:43;;;;;;;10.60;9.30;;;;;;;22.57;60.58;100246.49;106235;1263;63691;-60
2023/06/16 04:14:11;;;;;;;11.70;9.50;;;;;;;22.58;60.44;100249.80;104696;1264;60577;-57
2023/06/16 04:16:42;;;;;;;14.10;9.20;;;;;;;22.56;60.44;100253.59;104627;1257;60493;-56
2023/06/16 04:19:10;;;;;;;10.70;8.70;;;;;;;22.55;60.58;100252.23;104661;1267;64897;-59
2023/06/16 04:21:41;;;;;;;11.60;9.20;;;;;;;22.55;60.30;100252.64;104990;1263;61976;-59
2023/06/16 04:24:10;;;;;;;11.70;9.00;;;;;;;22.58;60.27;100248.89;104809;1264;64818;-59
2023/06/16 04:26:41;;;;;;;12.80;9.50;;;;;;;22.61;60.23;100250.54;105972;1260;60745;-61
2023/06/16 04:29:09;;;;;;;14.60;9.90;;;;;;;22.62;60.11;100247.98;105177;1259;60548;-59
2023/06/16 04:31:39;;;;;;;11.60;9.90;;;;;;;22.66;60.03;100245.17;104714;1258;64953;-59
2023/06/16 04:34:10;;;;;;;14.30;9.90;;;;;;;22.70;59.96;100251.25;104833;1257;64236;-60
2023/06/16 04:36:44;;;;;;;12.30;8.70;;;;;;;22.76;59.94;100251.83;104875;1263;63741;-59
2023/06/16 04:39:32;;;;;;;13.80;9.10;;;;;;;22.88;59.74;100250.96;104762;1262;60547;-59
2023/06/16 04:42:02;;;;;;;10.60;8.30;;;;;;;22.98;59.64;100251.58;104702;1263;60480;-60
2023/06/16 04:44:31;;;;;;;13.30;8.20;;;;;;;23.06;59.38;100251.99;105165;1258;66035;-59
2023/06/16 04:46:59;;;;;;;11.10;8.20;;;;;;;23.12;59.29;100252.73;104802;1258;62813;-59
2023/06/16 04:49:27;;;;;;;12.30;8.90;;;;;;;23.18;59.10;100257.36;104858;1259;63742;-59
2023/06/16 04:51:55;;;;;;;14.50;7.80;;;;;;;23.22;58.78;100256.91;104679;1262;61177;-59
2023/06/16 04:54:24;;;;;;;13.80;7.20;;;;;;;23.24;58.49;100257.06;104712;1263;60439;-59
2023/06/16 04:56:52;;;;;;;10.90;5.90;;;;;;;23.26;57.92;100259.54;104616;1267;64975;-59
2023/06/16 04:59:20;;;;;;;12.80;6.40;;;;;;;23.27;57.43;100260.40;104948;1258;61961;-59
2023/06/16 05:01:50;;;;;;;9.90;6.10;;;;;;;23.34;57.05;100263.02;104997;1260;63787;-59
2023/06/16 05:04:17;;;;;;;11.70;6.20;;;;;;;23.45;56.85;100267.17;104786;1264;60547;-59
2023/06/16 05:06:46;;;;;;;11.80;6.30;;;;;;;23.52;56.56;100263.27;104523;1260;60549;-60
2023/06/16 05:09:14;;;;;;;11.00;5.80;;;;;;;23.59;56.60;100269.13;104937;1263;67852;-60
2023/06/16 05:11:42;;;;;;;12.00;5.90;;;;;;;23.68;56.54;100266.48;104897;1264;60459;-59
2023/06/16 05:14:10;;;;;;;10.20;5.70;;;;;;;23.77;55.74;100265.96;104740;1262;63762;-59
2023/06/16 05:16:37;;;;;;;8.40;5.00;;;;;;;23.83;54.99;100270.09;104812;1260;61879;-59
2023/06/16 05:19:07;;;;;;;8.40;5.30;;;;;;;23.90;54.84;100267.92;104684;1258;60741;-62
2023/06/16 05:21:37;;;;;;;10.60;6.10;;;;;;;23.97;54.99;100271.11;105185;1261;65619;-59
2023/06/16 05:24:05;;;;;;;9.60;5.50;;;;;;;24.04;54.62;100272.48;104814;1257;61400;-59
2023/06/16 05:26:32;;;;;;;13.60;6.40;;;;;;;24.08;54.11;100273.95;104843;1262;62516;-59
2023/06/16 05:29:00;;;;;;;12.20;6.20;;;;;;;24.14;54.11;100275.34;104680;1264;60552;-58
2023/06/16 05:31:29;;;;;;;10.70;6.10;;;;;;;24.18;54.09;100278.20;104816;1263;60556;-59
2023/06/16 05:33:57;;;;;;;9.90;6.10;;;;;;;24.25;53.82;100277.00;104783;1257;64847;-61
2023/06/16 05:36:24;;;;;;;10.20;6.50;;;;;;;24.32;53.55;100279.66;104624;1263;60495;-57
2023/06/16 05:38:53;;;;;;;12.30;6.00;;;;;;;24.36;53.51;100276.86;105005;1260;64235;-57
2023/06/16 05:41:24;;;;;;;11.70;5.70;;;;;;;24.38;53.45;100273.38;104574;1257;60489;-58
2023/06/16 05:43:54;;;;;;;8.90;6.70;;;;;;;24.41;53.56;100277.15;104797;1263;60476;-58
2023/06/16 05:46:22;;;;;;;10.50;5.90;;;;;;;24.41;53.25;100274.46;104695;1264;63691;-58
2023/06/16 05:48:50;;;;;;;9.90;6.30;;;;;;;24.41;52.90;100275.00;105058;1258;61556;-58
2023/06/16 05:51:17;;;;;;;11.40;6.00;;;;;;;24.40;52.63;100272.48;105144;1263;64791;-57
2023/06/16 05:53:45;;;;;;;12.20;5.40;;;;;;;24.39;52.22;100278.71;104668;1261;60541;-58
2023/06/16 05:56:13;;;;;;;12.50;5.00;;;;;;;24.39;51.80;100279.45;104668;1257;60424;-56
2023/06/16 05:58:41;;;;;;;8.80;6.40;;;;;;;24.39;51.58;100283.83;104661;1257;65362;-60
2023/06/16 06:01:13;;;;;;;9.00;5.90;;;;;;;24.39;51.82;100283.66;104496;1260;60452;-58
2023/06/16 06:03:46;;;;;;;12.80;6.60;;;;;;;24.41;52.02;100283.49;104793;1258;62436;-57
2023/06/16 06:06:16;;;;;;;10.00;6.00;;;;;;;24.39;52.03;100281.39;104737;1259;60505;-57
2023/06/16 06:08:44;;;;;;;10.90;6.00;;;;;;;24.35;52.03;100284.40;104886;1258;60328;-57
2023/06/16 06:11:12;;;;;;;11.10;5.60;;;;;;;24.34;52.18;100281.45;104688;1257;64982;-57
2023/06/16 06:13:40;;;;;;;9.70;5.40;;;;;;;24.36;52.00;100276.11;104604;1257;61356;-57
2023/06/16 06:16:09;;;;;;;8.60;5.50;;;;;;;24.34;52.12;100275.52;105078;1260;64230;-57
2023/06/16 06:18:37;;;;;;;10.50;5.60;;;;;;;24.31;52.41;100276.36;104545;1260;60489;-57
2023/06/16 06:21:05;;;;;;;9.40;5.40;;;;;;;24.32;52.58;100274.78;104949;1258;61628;-57
2023/06/16 06:23:32;;;;;;;8.50;5.00;;;;;;;24.39;52.22;100271.67;104811;1257;64932;-57
2023/06/16 06:26:00;;;;;;;8.90;5.00;;;;;;;24.46;52.14;100270.27;104864;1258;61304;-58
2023/06/16 06:28:28;;;;;;;8.00;5.30;;;;;;;24.55;52.14;100272.13;105080;1256;64762;-56
2023/06/16 06:30:55;;;;;;;9.00;5.70;;;;;;;24.64;52.28;100270.54;104824;1261;60480;-57
2023/06/16 06:33:23;;;;;;;9.70;5.90;;;;;;;24.73;51.75;100271.55;104889;1260;61006;-57
2023/06/16 06:35:51;;;;;;;11.20;4.80;;;;;;;24.80;51.60;100270.54;104793;1261;63647;-58
2023/06/16 06:38:18;;;;;;;7.90;5.20;;;;;;;24.89;51.58;100270.23;104892;1254;70321;-56
2023/06/16 06:40:47;;;;;;;7.50;4.50;;;;;;;24.95;51.08;100269.46;105674;1257;63759;-56
2023/06/16 06:43:19;;;;;;;11.50;5.00;;;;;;;25.00;50.34;100269.09;104849;1254;60537;-57
2023/06/16 06:45:52;;;;;;;9.40;5.00;;;;;;;25.03;49.94;100268.89;105242;1257;60435;-56
2023/06/16 06:48:20;;;;;;;8.70;5.00;;;;;;;25.08;49.67;100268.34;104947;1254;64947;-57
2023/06/16 06:50:50;;;;;;;8.40;5.40;;;;;;;25.13;49.40;100262.38;105330;1259;60394;-58
2023/06/16 06:53:18;;;;;;;8.10;4.90;;;;;;;25.18;49.20;100261.75;104817;1261;62477;-58
2023/06/16 06:55:46;;;;;;;7.40;4.60;;;;;;;25.21;49.24;100265.20;105280;1254;61326;-58
2023/06/16 06:58:14;;;;;;;9.80;5.30;;;;;;;25.27;48.84;100264.39;104957;1260;60436;-58
2023/06/16 07:00:41;;;;;;;8.60;5.10;;;;;;;25.34;48.50;100267.52;104851;1256;67486;-60
2023/06/16 07:03:08;;;;;;;9.70;4.80;;;;;;;25.40;48.41;100259.83;105002;1258;60621;-58
2023/06/16 07:05:36;;;;;;;8.20;4.40;;;;;;;25.45;47.79;100257.15;105006;1257;63780;-58
2023/06/16 07:08:04;;;;;;;9.00;5.30;;;;;;;25.50;47.55;100256.98;105000;1257;60567;-58
2023/06/16 07:10:32;;;;;;;16.00;4.60;;;;;;;25.55;47.31;100260.16;104980;1254;60594;-58
2023/06/16 07:13:00;;;;;;;10.60;4.80;;;;;;;25.59;47.00;100258.98;105178;1254;67469;-58
2023/06/16 07:15:27;;;;;;;8.50;4.00;;;;;;;25.63;46.69;100256.54;105105;1254;61451;-58
2023/06/16 07:17:55;;;;;;;8.00;4.70;;;;;;;25.66;46.78;100256.13;104925;1264;64258;-58
2023/06/16 07:20:23;;;;;;;8.10;4.30;;;;;;;25.67;46.10;100254.95;105068;1257;60531;-57
2023/06/16 07:22:51;;;;;;;7.50;4.70;;;;;;;25.68;46.00;100247.81;105210;1254;61880;-57
2023/06/16 07:25:19;;;;;;;8.50;4.10;;;;;;;25.71;45.76;100244.30;105006;1257;65019;-57
2023/06/16 07:27:46;;;;;;;9.40;4.30;;;;;;;25.74;45.45;100248.83;104981;1254;61455;-56
2023/06/16 07:30:13;;;;;;;15.90;4.80;;;;;;;25.75;45.24;100246.87;104999;1257;66996;-57
2023/06/16 07:32:41;;;;;;;9.40;4.20;;;;;;;25.77;45.23;100246.30;104941;1259;60556;-57
2023/06/16 07:35:09;;;;;;;7.90;4.30;;;;;;;25.81;44.99;100246.48;104951;1254;60475;-57
2023/06/16 07:37:36;;;;;;;6.20;3.90;;;;;;;25.86;44.68;100248.58;104908;1254;63688;-57
2023/06/16 07:40:08;;;;;;;6.90;3.60;;;;;;;25.91;43.74;100247.90;104827;1255;61300;-59
2023/06/16 07:42:36;;;;;;;8.50;4.00;;;;;;;25.97;43.75;100246.10;104716;1260;62438;-58
2023/06/16 07:45:04;;;;;;;9.20;3.90;;;;;;;26.04;42.93;100245.65;104759;1258;60557;-60
2023/06/16 07:47:31;;;;;;;6.30;3.40;;;;;;;26.12;42.19;100244.40;104941;1260;60540;-61
2023/06/16 07:49:59;;;;;;;7.00;3.60;;;;;;;26.21;41.62;100243.13;104851;1258;63869;-59
2023/06/16 07:52:26;;;;;;;11.90;3.50;;;;;;;26.30;41.73;100240.34;104588;1256;61388;-61
2023/06/16 07:54:55;;;;;;;11.20;3.90;;;;;;;26.38;41.79;100240.17;104562;1261;63683;-58
2023/06/16 07:57:22;;;;;;;8.20;3.50;;;;;;;26.46;42.10;100239.38;104771;1259;60513;-58
2023/06/16 07:59:50;;;;;;;12.20;3.60;;;;;;;26.54;42.06;100244.12;104745;1257;60514;-57
2023/06/16 08:02:17;;;;;;;11.00;3.90;;;;;;;26.61;41.25;100239.40;104790;1254;64946;-57
2023/06/16 08:04:45;;;;;;;5.00;2.90;;;;;;;26.68;40.60;100242.30;104667;1254;64533;-57
2023/06/16 08:07:12;;;;;;;7.50;3.90;;;;;;;26.75;40.03;100242.12;104683;1256;62503;-58
2023/06/16 08:09:40;;;;;;;6.30;3.10;;;;;;;26.81;40.25;100245.25;104815;1254;60477;-58
2023/06/16 08:12:11;;;;;;;6.00;2.60;;;;;;;26.89;40.44;100246.35;104981;1255;60436;-58
2023/06/16 08:14:38;;;;;;;6.40;3.30;;;;;;;26.97;39.50;100246.64;105003;1258;63709;-60
2023/06/16 08:17:05;;;;;;;7.60;2.80;;;;;;;27.03;39.43;100245.65;104899;1254;61524;-58
2023/06/16 08:19:33;;;;;;;7.50;3.50;;;;;;;27.09;39.51;100246.14;104918;1257;64303;-58
2023/06/16 08:22:01;;;;;;;9.20;3.40;;;;;;;27.13;39.74;100249.55;105177;1258;60613;-59
2023/06/16 08:24:28;;;;;;;5.90;3.30;;;;;;;27.16;39.35;100247.59;104983;1254;60374;-57
2023/06/16 08:26:56;;;;;;;6.50;3.40;;;;;;;27.17;38.95;100248.27;105063;1256;63677;-58
2023/06/16 08:29:24;;;;;;;7.10;3.80;;;;;;;27.19;39.13;100247.23;105121;1255;60486;-59
2023/06/16 08:31:51;;;;;;;6.20;3.30;;;;;;;27.24;38.51;100244.90;104899;1257;65709;-58
2023/06/16 08:34:19;;;;;;;6.90;3.20;;;;;;;27.31;38.64;100246.21;104892;1254;63072;-59
2023/06/16 08:36:46;;;;;;;6.40;2.90;;;;;;;27.38;38.63;100241.64;105036;1254;60536;-59
2023/06/16 08:39:15;;;;;;;7.40;3.20;;;;;;;27.47;38.47;100242.24;106124;1257;64955;-64
2023/06/16 08:41:42;;;;;;;5.30;3.10;;;;;;;27.57;38.59;100240.25;104946;1254;61904;-60
2023/06/16 08:44:11;;;;;;;6.00;3.20;;;;;;;27.68;38.47;100238.91;104891;1256;63723;-57
2023/06/16 08:46:39;;;;;;;8.60;3.90;;;;;;;27.76;38.33;100236.13;106344;1259;61267;-59
2023/06/16 08:49:07;;;;;;;6.30;3.20;;;;;;;27.85;38.22;100233.16;104949;1254;60543;-60
2023/06/16 08:51:34;;;;;;;7.70;3.10;;;;;;;27.92;38.54;100236.02;104714;1256;64878;-66
2023/06/16 08:54:06;;;;;;;6.60;3.30;;;;;;;27.98;38.03;100233.66;104671;1254;61697;-60
2023/06/16 08:56:34;;;;;;;8.20;3.40;;;;;;;28.02;37.19;100232.40;105765;1259;63391;-59
2023/06/16 08:59:03;;;;;;;5.50;3.20;;;;;;;28.07;37.73;100231.50;104942;1258;60506;-60
2023/06/16 09:01:33;;;;;;;8.10;3.50;;;;;;;28.11;37.34;100230.23;105724;1255;60439;-58
2023/06/16 09:04:01;;;;;;;6.50;3.40;;;;;;;28.17;36.83;100233.90;105073;1258;63832;-59
2023/06/16 09:06:29;;;;;;;8.30;3.90;;;;;;;28.21;36.58;100234.62;104588;1263;60713;-59
2023/06/16 09:08:57;;;;;;;5.50;2.90;;;;;;;28.25;37.24;100232.84;105327;1255;63690;-59
2023/06/16 09:11:24;;;;;;;8.50;3.80;;;;;;;28.25;37.01;100231.86;104931;1254;60549;-59
2023/06/16 09:13:53;;;;;;;7.00;3.20;;;;;;;28.20;37.01;100233.19;105161;1255;60351;-60
2023/06/16 09:16:22;;;;;;;8.60;3.40;;;;;;;28.17;37.57;100236.02;105034;1260;64945;-59
2023/06/16 09:18:50;;;;;;;8.60;4.10;;;;;;;28.14;37.44;100235.48;105729;1258;64001;-58
2023/06/16 09:21:24;;;;;;;8.50;3.50;;;;;;;28.11;37.33;100234.60;105049;1257;68014;-58
2023/06/16 09:24:00;;;;;;;8.60;3.60;;;;;;;28.07;37.57;100233.50;104909;1259;60515;-61
2023/06/16 09:26:35;;;;;;;6.30;3.70;;;;;;;28.04;37.45;100231.12;105618;1259;60461;-59
2023/06/16 09:29:23;;;;;;;7.40;3.40;;;;;;;28.02;37.66;100232.93;105161;1259;63749;-60
2023/06/16 09:31:52;;;;;;;6.70;3.00;;;;;;;28.05;38.04;100231.04;105191;1260;63088;-58
2023/06/16 09:34:19;;;;;;;6.80;3.80;;;;;;;28.13;37.66;100229.07;105100;1258;66544;-58
2023/06/16 09:36:47;;;;;;;8.60;3.80;;;;;;;28.23;37.33;100224.48;105078;1258;60791;-59
2023/06/16 09:39:25;;;;;;;8.70;3.60;;;;;;;28.30;37.32;100219.68;105125;1260;60393;-60
2023/06/16 09:41:53;;;;;;;9.90;3.60;;;;;;;28.42;36.35;100215.70;105626;1254;73751;-59
2023/06/16 09:44:25;;;;;;;10.10;3.40;;;;;;;28.47;36.55;100213.36;105115;1260;62422;-59
2023/06/16 09:46:55;;;;;;;6.60;3.20;;;;;;;28.49;36.79;100213.19;105575;1259;64220;-60
2023/06/16 09:49:25;;;;;;;6.50;3.50;;;;;;;28.50;36.64;100214.43;105143;1259;60816;-60
2023/06/16 09:51:57;;;;;;;8.00;4.00;;;;;;;28.49;36.82;100213.07;105017;1261;60460;-59
2023/06/16 09:54:26;;;;;;;8.40;3.70;;;;;;;28.51;36.32;100210.65;105511;1254;63702;-58
2023/06/16 09:56:59;;;;;;;7.40;3.80;;;;;;;28.55;36.52;100208.23;105209;1255;62475;-59
2023/06/16 09:59:27;;;;;;;6.10;3.60;;;;;;;28.59;36.96;100205.90;104993;1255;63862;-60
2023/06/16 10:01:55;;;;;;;9.80;4.10;;;;;;;28.69;37.04;100200.69;104998;1260;60528;-59
2023/06/16 10:04:23;;;;;;;7.30;3.50;;;;;;;28.78;36.47;100202.77;105044;1259;60718;-60
2023/06/16 10:07:00;;;;;;;8.20;4.10;;;;;;;28.85;36.48;100200.38;105138;1255;64911;-58
2023/06/16 10:09:48;;;;;;;5.20;3.10;;;;;;;28.90;36.18;100198.73;105155;1254;63763;-59
2023/06/16 10:12:32;;;;;;;6.90;4.00;;;;;;;28.94;36.21;100199.27;104790;1260;64753;-59
2023/06/16 10:15:01;;;;;;;6.30;3.30;;;;;;;28.96;36.26;100195.83;105708;1254;60580;-60
2023/06/16 10:17:32;;;;;;;9.80;3.60;;;;;;;28.99;36.97;100196.25;105149;1254;60454;-59
2023/06/16 10:20:00;;;;;;;8.30;3.80;;;;;;;29.03;37.05;100193.98;108072;1254;63724;-58
2023/06/16 10:22:28;;;;;;;8.50;3.70;;;;;;;29.05;36.58;100192.11;104914;1254;62471;-59
2023/06/16 10:24:56;;;;;;;7.40;3.50;;;;;;;29.11;36.20;100187.52;104841;1260;62704;-59
2023/06/16 10:27:23;;;;;;;7.60;3.50;;;;;;;29.16;35.70;100186.80;105071;1253;60512;-60
2023/06/16 10:29:51;;;;;;;6.00;3.50;;;;;;;29.18;35.00;100185.89;104816;1254;62192;-60
2023/06/16 10:32:19;;;;;;;6.90;4.10;;;;;;;29.19;35.97;100184.95;104792;1254;74282;-58
2023/06/16 10:34:49;;;;;;;7.00;3.30;;;;;;;29.24;36.00;100180.79;105042;1260;60435;-58
2023/06/16 10:37:18;;;;;;;7.00;3.00;;;;;;;29.30;35.68;100177.45;104746;1257;64485;-58
2023/06/16 10:39:46;;;;;;;6.30;3.20;;;;;;;29.35;35.88;100174.27;107963;1254;61219;-58
2023/06/16 10:42:14;;;;;;;8.00;3.70;;;;;;;29.41;35.74;100169.61;104947;1258;60634;-59
2023/06/16 10:44:43;;;;;;;7.70;3.40;;;;;;;29.47;35.18;100170.33;104915;1254;64985;-70
2023/06/16 10:47:11;;;;;;;8.00;3.60;;;;;;;29.52;35.20;100164.04;104833;1260;61783;-67
2023/06/16 10:49:52;;;;;;;7.60;3.30;;;;;;;29.59;35.49;100161.23;104886;1254;62464;-59
2023/06/16 10:52:43;;;;;;;8.80;3.70;;;;;;;29.68;35.25;100158.30;105067;1254;61199;-60
2023/06/16 10:55:33;;;;;;;6.50;3.30;;;;;;;29.74;35.43;100156.41;104962;1254;60554;-58
2023/06/16 10:58:16;;;;;;;9.60;3.30;;;;;;;29.80;35.35;100155.58;105036;1256;65145;-59
2023/06/16 11:01:06;;;;;;;7.10;3.70;;;;;;;29.85;35.10;100149.83;104972;1255;61323;-60
2023/06/16 11:03:34;;;;;;;9.80;3.20;;;;;;;29.89;35.60;100147.54;104857;1254;62448;-60
2023/06/16 11:06:03;;;;;;;5.30;3.10;;;;;;;29.94;35.38;100149.05;104943;1254;60576;-59
2023/06/16 11:08:52;;;;;;;7.10;3.50;;;;;;;30.00;34.44;100143.77;104709;1254;60517;-61
2023/06/16 11:11:20;;;;;;;7.30;3.70;;;;;;;30.05;34.31;100140.20;104809;1254;64982;-60
2023/06/16 11:13:48;;;;;;;6.20;3.20;;;;;;;30.08;34.71;100138.64;105013;1254;62323;-62
2023/06/16 11:16:16;;;;;;;7.50;3.00;;;;;;;30.10;34.83;100134.14;104808;1258;62520;-59
2023/06/16 11:18:43;;;;;;;7.80;3.50;;;;;;;30.15;35.07;100132.55;104906;1254;60896;-58
2023/06/16 11:21:11;;;;;;;7.10;3.70;;;;;;;30.25;34.86;100134.91;104741;1254;60447;-60
2023/06/16 11:23:43;;;;;;;8.40;4.20;;;;;;;30.34;34.76;100135.92;104672;1256;66052;-64